Time;durP1;ratioP1;P1;durP2;ratioP2;P2;SDS_P1;SDS_P2;PMS_P1;PMS_P2;Temp;Humidity;BMP_temperature;BMP_pressure;BME280_temperature;BME280_humidity;BME280_pressure;Samples;Min_cycle;Max_cycle;Signal;HPM_P1;HPM_P2
2022/06/15 00:00:59;;;;;;;5.20;2.33;;;14.50;99.90;;;;;;6290508;28;20270;-68
2022/06/15 00:04:04;;;;;;;3.28;1.90;;;14.70;99.90;;;;;;6289798;28;20294;-68
2022/06/15 00:07:15;;;;;;;2.72;1.80;;;14.70;99.90;;;;;;6289704;28;20275;-68
2022/06/15 00:10:20;;;;;;;1.98;1.88;;;14.70;99.90;;;;;;6289983;28;20259;-68
2022/06/15 00:13:29;;;;;;;2.92;2.15;;;14.60;99.90;;;;;;6289752;28;20299;-68
2022/06/15 00:16:35;;;;;;;3.13;2.00;;;14.50;99.90;;;;;;6289981;28;20271;-68
2022/06/15 00:19:41;;;;;;;2.97;1.60;;;14.60;99.90;;;;;;6289457;28;20306;-69
2022/06/15 00:22:46;;;;;;;1.77;1.77;;;14.60;99.90;;;;;;6288758;28;20294;-69
2022/06/15 00:25:52;;;;;;;1.98;1.73;;;14.60;99.90;;;;;;6289299;28;20286;-68
2022/06/15 00:28:58;;;;;;;1.67;1.67;;;14.50;99.90;;;;;;6289590;28;20295;-67
2022/06/15 00:32:05;;;;;;;2.25;1.50;;;14.70;99.90;;;;;;6289495;28;20435;-69
2022/06/15 00:35:11;;;;;;;1.80;1.80;;;14.70;99.90;;;;;;6271411;28;20294;-69
2022/06/15 00:38:16;;;;;;;1.95;1.67;;;14.60;99.90;;;;;;6289023;28;20300;-69
2022/06/15 00:41:24;;;;;;;1.90;1.90;;;14.60;99.90;;;;;;6289391;28;20274;-68
2022/06/15 00:44:37;;;;;;;1.70;1.70;;;14.50;99.90;;;;;;6271802;28;20295;-69
2022/06/15 00:47:45;;;;;;;3.22;1.80;;;14.50;99.90;;;;;;6288634;28;20298;-69
2022/06/15 00:50:50;;;;;;;3.10;1.77;;;14.50;99.90;;;;;;6288369;28;20458;-69
2022/06/15 00:53:57;;;;;;;2.08;1.80;;;14.50;99.90;;;;;;6270955;28;20299;-68
2022/06/15 00:57:04;;;;;;;2.15;1.70;;;14.50;99.90;;;;;;6288036;28;20277;-69
2022/06/15 01:00:15;;;;;;;1.80;1.70;;;14.40;99.90;;;;;;6288595;28;20440;-69
2022/06/15 01:03:22;;;;;;;2.13;1.90;;;14.40;99.90;;;;;;6280238;28;20295;-68
2022/06/15 01:06:38;;;;;;;1.80;1.80;;;14.50;99.90;;;;;;6288847;28;20453;-69
2022/06/15 01:09:50;;;;;;;1.75;1.67;;;14.40;99.90;;;;;;6286943;28;20591;-69
2022/06/15 01:13:17;;;;;;;1.98;1.88;;;14.40;99.90;;;;;;6288624;28;20295;-69
2022/06/15 01:16:30;;;;;;;1.92;1.83;;;14.40;99.90;;;;;;6313065;28;20463;-69
2022/06/15 01:20:09;;;;;;;1.80;1.80;;;14.50;99.90;;;;;;6313161;28;20470;-68
2022/06/15 01:23:51;;;;;;;2.72;1.88;;;14.40;99.90;;;;;;6275157;28;20302;-68
2022/06/15 01:27:56;;;;;;;1.73;1.73;;;14.40;99.90;;;;;;6313675;28;20270;-69
2022/06/15 01:31:12;;;;;;;1.63;1.55;;;14.30;99.90;;;;;;6286508;28;20278;-69
2022/06/15 01:34:22;;;;;;;1.90;1.80;;;14.40;99.90;;;;;;6286875;28;20296;-68
2022/06/15 01:37:34;;;;;;;1.70;1.70;;;14.40;99.90;;;;;;6286908;28;20275;-68
2022/06/15 01:40:41;;;;;;;1.67;1.63;;;14.40;99.90;;;;;;6288272;28;20275;-68
2022/06/15 01:43:51;;;;;;;2.17;2.17;;;14.40;99.90;;;;;;6269969;28;20294;-68
2022/06/15 01:47:03;;;;;;;2.05;1.90;;;14.40;99.90;;;;;;6287095;28;20271;-68
2022/06/15 01:50:13;;;;;;;1.55;1.55;;;14.40;99.90;;;;;;6287477;28;20294;-69
2022/06/15 01:53:22;;;;;;;1.85;1.85;;;14.50;99.90;;;;;;6286238;28;20294;-69
2022/06/15 01:56:31;;;;;;;4.88;2.13;;;14.40;99.90;;;;;;6287372;28;20287;-69
2022/06/15 01:59:43;;;;;;;4.13;2.17;;;14.40;99.90;;;;;;6286047;28;20311;-68
2022/06/15 02:03:04;;;;;;;2.70;2.30;;;14.40;99.90;;;;;;6285628;28;20587;-68
2022/06/15 02:06:19;;;;;;;2.15;2.15;;;14.20;99.90;;;;;;6286511;28;20275;-69
2022/06/15 02:09:31;;;;;;;2.00;2.00;;;14.30;99.90;;;;;;6287006;28;20301;-69
2022/06/15 02:12:41;;;;;;;2.83;1.80;;;14.30;99.90;;;;;;6244468;28;20295;-69
2022/06/15 02:15:50;;;;;;;2.05;2.05;;;14.20;99.90;;;;;;6262119;28;20487;-69
2022/06/15 02:19:00;;;;;;;2.55;2.10;;;14.20;99.90;;;;;;6275444;28;20299;-69
2022/06/15 02:22:09;;;;;;;2.85;1.80;;;14.20;99.90;;;;;;6296553;28;20272;-68
2022/06/15 02:25:17;;;;;;;2.08;1.98;;;14.10;99.90;;;;;;6259828;28;20303;-69
2022/06/15 02:28:29;;;;;;;4.22;2.38;;;14.10;99.90;;;;;;6301676;28;20471;-69
2022/06/15 02:31:38;;;;;;;4.70;2.20;;;14.20;99.90;;;;;;6302117;28;20293;-68
2022/06/15 02:34:45;;;;;;;2.13;2.03;;;14.20;99.90;;;;;;6301347;28;20311;-69
2022/06/15 02:37:51;;;;;;;3.05;2.08;;;14.20;99.90;;;;;;6286213;28;20295;-69
2022/06/15 02:41:00;;;;;;;4.00;2.28;;;14.20;99.90;;;;;;6285126;28;20270;-69
2022/06/15 02:44:09;;;;;;;4.78;3.58;;;14.10;99.90;;;;;;6301434;28;20303;-68
2022/06/15 02:47:15;;;;;;;2.20;2.20;;;14.10;99.90;;;;;;6301581;28;20279;-69
2022/06/15 02:50:23;;;;;;;2.03;1.85;;;14.20;99.90;;;;;;6285334;28;20266;-69
2022/06/15 02:53:30;;;;;;;2.00;1.80;;;14.30;99.90;;;;;;6268613;28;20589;-68
2022/06/15 02:56:37;;;;;;;2.08;1.98;;;14.30;99.90;;;;;;6301609;28;20307;-68
2022/06/15 02:59:45;;;;;;;2.08;2.08;;;14.40;99.90;;;;;;6300850;28;20295;-69
2022/06/15 03:02:51;;;;;;;2.17;2.08;;;14.40;99.90;;;;;;6305677;28;20458;-68
2022/06/15 03:05:59;;;;;;;1.85;1.85;;;14.40;99.90;;;;;;6293051;28;20546;-69
2022/06/15 03:09:05;;;;;;;2.05;1.80;;;14.50;99.90;;;;;;6309332;28;20306;-69
2022/06/15 03:12:24;;;;;;;1.60;1.60;;;14.50;99.90;;;;;;6308041;28;20263;-68
2022/06/15 03:15:30;;;;;;;2.00;1.90;;;14.60;99.90;;;;;;6284938;28;20290;-69
2022/06/15 03:18:36;;;;;;;1.90;1.90;;;14.60;99.90;;;;;;6284146;28;20286;-69
2022/06/15 03:21:47;;;;;;;3.25;1.80;;;14.60;99.90;;;;;;6286723;28;20271;-69
2022/06/15 03:24:52;;;;;;;1.95;1.92;;;14.60;99.90;;;;;;6275316;28;20308;-68
2022/06/15 03:27:58;;;;;;;1.85;1.85;;;14.60;99.90;;;;;;6275634;28;20292;-69
2022/06/15 03:31:06;;;;;;;1.73;1.65;;;14.70;99.90;;;;;;6259360;28;20272;-69
2022/06/15 03:34:11;;;;;;;1.50;1.50;;;14.70;99.90;;;;;;6259875;28;20304;-69
2022/06/15 03:37:19;;;;;;;1.55;1.55;;;14.80;99.90;;;;;;6246001;28;20287;-69
2022/06/15 03:40:26;;;;;;;1.60;1.60;;;14.80;99.90;;;;;;6301111;28;20582;-69
2022/06/15 03:43:33;;;;;;;1.50;1.50;;;14.80;99.90;;;;;;6308668;28;20554;-69
2022/06/15 03:46:39;;;;;;;1.50;1.50;;;14.90;99.90;;;;;;6326138;28;20275;-69
2022/06/15 03:49:57;;;;;;;1.30;1.30;;;14.90;99.90;;;;;;6292185;28;20294;-69
2022/06/15 03:53:05;;;;;;;4.57;1.40;;;14.90;99.90;;;;;;6292537;28;20299;-69
2022/06/15 03:56:15;;;;;;;1.38;1.35;;;14.90;99.90;;;;;;6309296;28;20286;-69
2022/06/15 03:59:20;;;;;;;1.45;1.45;;;15.00;99.90;;;;;;6292232;28;20298;-68
2022/06/15 04:02:29;;;;;;;1.40;1.40;;;15.00;99.90;;;;;;6292417;28;20558;-69
2022/06/15 04:05:41;;;;;;;1.25;1.25;;;15.00;99.90;;;;;;6309153;28;20270;-69
2022/06/15 04:08:52;;;;;;;1.42;1.42;;;15.00;99.90;;;;;;6325107;28;20439;-69
2022/06/15 04:12:09;;;;;;;1.55;1.55;;;15.10;99.90;;;;;;6312280;28;20267;-69
2022/06/15 04:15:19;;;;;;;1.95;1.40;;;15.10;99.90;;;;;;6307850;28;20274;-69
2022/06/15 04:18:29;;;;;;;1.30;1.30;;;15.10;99.90;;;;;;6308618;28;20294;-69
2022/06/15 04:21:42;;;;;;;2.45;2.05;;;15.10;99.90;;;;;;6305792;28;20275;-69
2022/06/15 04:24:52;;;;;;;1.42;1.33;;;15.10;99.90;;;;;;6266569;28;20307;-68
2022/06/15 04:27:59;;;;;;;1.23;1.23;;;15.20;99.90;;;;;;6283093;28;20303;-69
2022/06/15 04:31:04;;;;;;;1.50;1.48;;;15.20;99.90;;;;;;6267950;28;20271;-69
2022/06/15 04:34:15;;;;;;;1.85;1.30;;;15.20;99.90;;;;;;6283326;28;20458;-69
2022/06/15 04:37:20;;;;;;;1.40;1.40;;;15.20;99.90;;;;;;6283244;28;20295;-68
2022/06/15 04:40:32;;;;;;;1.15;1.15;;;15.30;99.90;;;;;;6283246;28;20275;-69
2022/06/15 04:43:38;;;;;;;1.20;1.20;;;15.30;99.90;;;;;;6285515;28;20487;-69
2022/06/15 04:46:51;;;;;;;1.98;1.30;;;15.40;99.90;;;;;;6288124;28;20579;-68
2022/06/15 04:49:59;;;;;;;1.30;1.30;;;15.40;99.90;;;;;;6287856;28;20605;-69
2022/06/15 04:53:06;;;;;;;0.90;0.90;;;15.40;99.90;;;;;;6287638;28;20294;-68
2022/06/15 04:56:12;;;;;;;1.10;1.10;;;15.50;99.90;;;;;;6288140;28;20275;-69
2022/06/15 04:59:19;;;;;;;1.08;1.08;;;15.50;99.90;;;;;;6287596;28;20480;-69
2022/06/15 05:02:28;;;;;;;1.02;1.02;;;15.60;99.90;;;;;;6271368;28;20287;-69
2022/06/15 05:05:34;;;;;;;1.52;1.15;;;15.60;99.90;;;;;;6287753;28;20275;-69
2022/06/15 05:08:43;;;;;;;2.38;1.10;;;15.70;99.90;;;;;;6287257;28;20303;-68
2022/06/15 05:11:49;;;;;;;3.50;1.00;;;15.70;99.90;;;;;;6269155;28;20264;-69
2022/06/15 05:14:55;;;;;;;0.90;0.90;;;15.80;99.90;;;;;;6282900;28;20471;-68
2022/06/15 05:18:12;;;;;;;0.90;0.90;;;15.80;99.90;;;;;;6278096;28;20295;-68
2022/06/15 05:21:19;;;;;;;1.08;1.08;;;16.60;99.90;;;;;;6262387;28;20276;-68
2022/06/15 05:24:24;;;;;;;1.25;1.25;;;20.20;95.80;;;;;;6260351;28;20300;-68
2022/06/15 05:27:38;;;;;;;1.15;1.15;;;19.30;96.00;;;;;;6262168;28;20300;-68
2022/06/15 05:30:44;;;;;;;1.20;1.10;;;18.70;97.60;;;;;;6262477;28;20275;-68
2022/06/15 05:33:54;;;;;;;2.00;1.05;;;18.30;97.00;;;;;;6259229;28;20583;-68
2022/06/15 05:37:00;;;;;;;0.80;0.80;;;18.20;97.10;;;;;;6262170;28;20295;-68
2022/06/15 05:40:13;;;;;;;1.10;1.10;;;18.10;97.30;;;;;;6261231;28;20456;-68
2022/06/15 05:43:22;;;;;;;1.00;1.00;;;18.10;97.40;;;;;;6245442;28;20295;-68
2022/06/15 05:46:34;;;;;;;1.00;1.00;;;18.00;96.60;;;;;;6246003;28;20272;-68
2022/06/15 05:49:58;;;;;;;0.90;0.90;;;18.10;96.70;;;;;;6245911;28;20334;-68
2022/06/15 05:53:18;;;;;;;1.52;0.95;;;18.10;98.50;;;;;;6260963;28;20453;-68
2022/06/15 05:56:23;;;;;;;1.55;0.90;;;18.20;99.10;;;;;;6262726;28;20292;-68
2022/06/15 05:59:30;;;;;;;1.10;1.00;;;18.20;96.80;;;;;;6262170;28;20299;-68
2022/06/15 06:02:35;;;;;;;2.65;1.27;;;18.30;96.50;;;;;;6262199;28;20296;-70
2022/06/15 06:05:40;;;;;;;0.90;0.90;;;18.30;96.20;;;;;;6262193;28;20263;-67
2022/06/15 06:08:46;;;;;;;1.38;0.90;;;18.30;95.40;;;;;;6262125;28;20300;-68
2022/06/15 06:11:51;;;;;;;0.80;0.80;;;18.40;95.40;;;;;;6274941;28;20268;-68
2022/06/15 06:14:57;;;;;;;0.85;0.85;;;18.30;93.60;;;;;;6286806;28;20295;-68
2022/06/15 06:18:03;;;;;;;2.45;1.00;;;18.40;94.30;;;;;;6285394;28;20591;-68
2022/06/15 06:21:10;;;;;;;0.90;0.90;;;18.40;95.10;;;;;;6286775;28;20460;-68
2022/06/15 06:24:15;;;;;;;0.82;0.82;;;18.40;94.90;;;;;;6285967;28;20307;-68
2022/06/15 06:27:21;;;;;;;3.75;0.90;;;18.60;94.70;;;;;;6285976;28;20270;-69
2022/06/15 06:30:27;;;;;;;0.90;0.90;;;18.60;94.70;;;;;;6286656;28;20270;-69
2022/06/15 06:33:35;;;;;;;2.47;0.82;;;18.70;95.00;;;;;;6286198;28;20295;-68
2022/06/15 06:36:43;;;;;;;1.25;0.88;;;18.80;95.20;;;;;;6286184;28;20275;-68
2022/06/15 06:39:56;;;;;;;1.45;0.90;;;18.80;94.60;;;;;;6286072;28;20299;-68
2022/06/15 06:43:01;;;;;;;0.80;0.80;;;18.80;93.30;;;;;;6285421;28;20299;-69
2022/06/15 06:46:08;;;;;;;0.82;0.82;;;18.80;92.90;;;;;;6286111;28;20271;-68
2022/06/15 06:49:14;;;;;;;0.80;0.80;;;18.80;92.40;;;;;;6285934;28;20298;-69
2022/06/15 06:52:19;;;;;;;0.85;0.85;;;18.90;91.90;;;;;;6285703;28;20275;-68
2022/06/15 06:55:27;;;;;;;0.80;0.80;;;18.80;92.00;;;;;;6285984;28;20271;-69
2022/06/15 06:58:32;;;;;;;0.90;0.90;;;18.70;92.50;;;;;;6285211;28;20472;-69
2022/06/15 07:01:42;;;;;;;0.80;0.80;;;18.80;92.00;;;;;;6286148;28;20275;-69
2022/06/15 07:04:47;;;;;;;2.30;0.80;;;18.80;91.30;;;;;;6285646;28;20291;-69
2022/06/15 07:07:53;;;;;;;0.90;0.90;;;18.90;92.00;;;;;;6285207;28;20299;-69
2022/06/15 07:10:58;;;;;;;0.77;0.77;;;18.90;92.70;;;;;;6255769;28;20275;-69
2022/06/15 07:14:05;;;;;;;0.80;0.80;;;19.00;91.20;;;;;;6276572;28;20473;-69
2022/06/15 07:17:18;;;;;;;0.95;0.95;;;19.10;91.30;;;;;;6265754;28;20267;-69
2022/06/15 07:20:24;;;;;;;0.77;0.77;;;19.10;91.40;;;;;;6260599;28;20312;-69
2022/06/15 07:23:30;;;;;;;2.83;0.80;;;19.20;91.40;;;;;;6267058;28;20303;-69
2022/06/15 07:26:40;;;;;;;0.82;0.82;;;19.40;91.60;;;;;;6285560;28;20271;-69
2022/06/15 07:29:46;;;;;;;0.80;0.80;;;19.30;91.90;;;;;;6263288;28;20233;-69
2022/06/15 07:32:54;;;;;;;0.90;0.90;;;19.20;91.00;;;;;;6257777;28;20295;-69
2022/06/15 07:36:00;;;;;;;1.10;0.80;;;19.20;90.20;;;;;;6261290;28;20272;-69
2022/06/15 07:39:06;;;;;;;0.93;0.90;;;19.20;89.10;;;;;;6274227;28;20571;-70
2022/06/15 07:42:14;;;;;;;2.30;0.90;;;19.20;88.10;;;;;;6285017;28;20267;-69
2022/06/15 07:45:22;;;;;;;1.75;0.98;;;19.30;89.10;;;;;;6285606;28;20268;-68
2022/06/15 07:51:55;;;;;;;3.28;0.90;;;19.50;85.60;;;;;;6284772;28;20369;-68
2022/06/15 07:55:00;;;;;;;1.85;0.90;;;19.50;86.60;;;;;;6285068;28;20299;-68
2022/06/15 07:58:07;;;;;;;1.65;1.00;;;19.50;84.90;;;;;;6284958;28;20299;-68
2022/06/15 08:01:14;;;;;;;0.90;0.90;;;19.40;86.90;;;;;;6284992;28;20556;-68
2022/06/15 08:04:21;;;;;;;1.05;1.05;;;19.40;85.80;;;;;;6284494;28;20290;-68
2022/06/15 08:07:26;;;;;;;0.90;0.90;;;19.60;86.50;;;;;;6284747;28;20271;-69
2022/06/15 08:10:33;;;;;;;0.93;0.93;;;19.50;86.60;;;;;;6285277;28;20263;-68
2022/06/15 08:13:40;;;;;;;1.33;1.15;;;19.60;87.30;;;;;;6284526;28;20311;-69
2022/06/15 08:16:45;;;;;;;4.47;1.20;;;19.70;88.70;;;;;;6285481;28;20271;-69
2022/06/15 08:19:55;;;;;;;1.00;1.00;;;19.90;88.40;;;;;;6288864;28;20298;-69
2022/06/15 08:23:07;;;;;;;1.65;1.30;;;20.00;89.10;;;;;;6289133;28;20294;-70
2022/06/15 08:26:20;;;;;;;5.78;1.20;;;20.00;87.40;;;;;;6289949;28;20271;-69
2022/06/15 08:29:25;;;;;;;1.10;1.10;;;20.10;90.20;;;;;;6289087;28;20299;-69
2022/06/15 08:32:31;;;;;;;1.88;1.02;;;20.10;87.70;;;;;;6289124;28;20326;-69
2022/06/15 08:35:38;;;;;;;1.40;1.10;;;20.20;85.00;;;;;;6289167;28;20275;-69
2022/06/15 08:38:44;;;;;;;1.20;1.20;;;20.20;86.00;;;;;;6289056;28;20295;-69
2022/06/15 08:41:55;;;;;;;2.85;1.42;;;20.30;85.70;;;;;;6289223;28;20290;-68
2022/06/15 08:45:08;;;;;;;0.82;0.82;;;20.20;84.30;;;;;;6289356;28;20306;-69
2022/06/15 08:48:50;;;;;;;1.50;1.40;;;20.30;86.40;;;;;;6288760;28;20315;-68
2022/06/15 08:52:01;;;;;;;1.85;1.17;;;20.30;83.30;;;;;;6289159;28;20271;-69
2022/06/15 08:55:11;;;;;;;1.38;1.20;;;20.20;82.30;;;;;;6288779;28;20296;-69
2022/06/15 08:58:26;;;;;;;1.50;1.23;;;20.30;86.10;;;;;;6288782;28;20294;-68
2022/06/15 09:01:38;;;;;;;2.50;1.15;;;20.20;85.10;;;;;;6288982;28;20590;-68
2022/06/15 09:04:52;;;;;;;1.45;1.25;;;20.10;83.60;;;;;;6288496;28;20291;-69
2022/06/15 09:08:30;;;;;;;1.60;1.60;;;20.10;86.30;;;;;;6288504;28;20331;-68
2022/06/15 09:11:48;;;;;;;3.67;1.17;;;20.10;83.20;;;;;;6288884;28;20267;-69
2022/06/15 09:15:04;;;;;;;1.08;1.00;;;20.10;83.00;;;;;;6287868;28;20606;-68
2022/06/15 09:18:19;;;;;;;1.40;1.30;;;20.10;83.40;;;;;;6288068;28;20299;-68
2022/06/15 09:21:29;;;;;;;1.33;1.20;;;20.10;85.60;;;;;;6288113;28;20295;-69
2022/06/15 09:24:47;;;;;;;1.00;1.00;;;20.20;85.70;;;;;;6281327;28;20299;-69
2022/06/15 09:27:58;;;;;;;1.00;1.00;;;20.20;84.30;;;;;;6287548;28;20295;-68
2022/06/15 09:31:07;;;;;;;1.67;1.10;;;20.20;86.60;;;;;;6288038;28;20279;-69
2022/06/15 09:34:17;;;;;;;1.33;1.33;;;20.20;84.30;;;;;;6287746;28;20300;-69
2022/06/15 09:37:32;;;;;;;1.30;1.30;;;20.20;85.90;;;;;;6287776;28;20574;-68
2022/06/15 09:40:54;;;;;;;1.48;1.25;;;20.20;85.40;;;;;;6287827;28;20295;-69
2022/06/15 09:44:13;;;;;;;1.48;1.05;;;20.30;86.70;;;;;;6287335;28;20299;-68
2022/06/15 09:47:45;;;;;;;1.63;1.10;;;20.30;84.90;;;;;;6287484;28;20602;-69
2022/06/15 09:50:59;;;;;;;1.08;1.08;;;20.30;88.00;;;;;;6287758;28;20279;-69
2022/06/15 09:54:12;;;;;;;1.02;1.02;;;20.40;84.90;;;;;;6287501;28;20298;-69
2022/06/15 09:57:20;;;;;;;1.05;1.05;;;20.30;87.60;;;;;;6287609;28;20331;-69
2022/06/15 10:00:25;;;;;;;1.30;1.10;;;20.40;83.60;;;;;;6287652;28;20574;-68
2022/06/15 10:03:34;;;;;;;1.10;1.10;;;20.40;81.60;;;;;;6287247;28;20294;-68
2022/06/15 10:06:46;;;;;;;1.00;1.00;;;20.40;81.50;;;;;;6287279;28;20267;-68
2022/06/15 10:09:55;;;;;;;1.42;1.17;;;20.40;81.50;;;;;;6286484;28;20298;-69
2022/06/15 10:13:06;;;;;;;0.95;0.95;;;20.50;81.60;;;;;;6286534;28;20295;-69
2022/06/15 10:16:27;;;;;;;1.13;1.00;;;20.60;80.50;;;;;;6287243;28;20316;-68
2022/06/15 10:19:35;;;;;;;2.55;1.00;;;20.60;84.90;;;;;;6286859;28;20315;-70
2022/06/15 10:22:42;;;;;;;0.90;0.90;;;20.60;82.50;;;;;;6286524;28;20303;-69
2022/06/15 10:25:52;;;;;;;0.80;0.80;;;20.60;82.40;;;;;;6287354;28;20303;-69
2022/06/15 10:29:05;;;;;;;3.75;1.05;;;20.60;81.60;;;;;;6286229;28;20294;-69
2022/06/15 10:32:20;;;;;;;0.98;0.95;;;20.60;81.60;;;;;;6286387;28;20279;-69
2022/06/15 10:35:32;;;;;;;1.05;1.05;;;20.60;83.10;;;;;;6286749;28;20575;-69
2022/06/15 10:38:40;;;;;;;2.60;1.20;;;20.60;84.40;;;;;;6286396;28;20564;-68
2022/06/15 10:41:46;;;;;;;2.35;1.98;;;20.70;83.10;;;;;;6285560;28;20625;-69
2022/06/15 10:44:56;;;;;;;3.72;1.10;;;20.80;82.60;;;;;;6286049;28;20303;-68
2022/06/15 10:48:04;;;;;;;3.38;1.08;;;20.80;84.40;;;;;;6286012;28;20303;-68
2022/06/15 10:51:12;;;;;;;1.00;1.00;;;20.80;84.90;;;;;;6286478;28;20271;-69
2022/06/15 10:54:32;;;;;;;0.80;0.80;;;20.80;83.20;;;;;;6285804;28;20294;-67
2022/06/15 11:04:54;;;;;;;1.45;1.00;;;20.90;81.20;;;;;;6285525;28;20582;-68
2022/06/15 11:08:01;;;;;;;1.17;1.10;;;20.90;81.90;;;;;;6285762;28;20567;-68
2022/06/15 11:11:16;;;;;;;1.95;1.00;;;20.90;81.50;;;;;;6285717;28;20458;-68
2022/06/15 11:14:28;;;;;;;1.20;1.02;;;21.00;82.30;;;;;;6285555;28;20303;-68
2022/06/15 11:21:09;;;;;;;1.10;1.10;;;21.10;81.20;;;;;;6285658;28;20278;-68
2022/06/15 11:24:28;;;;;;;1.15;1.05;;;21.20;80.80;;;;;;6284799;28;20299;-68
2022/06/15 11:27:38;;;;;;;1.10;1.10;;;21.30;79.40;;;;;;6284914;28;20291;-68
2022/06/15 11:30:52;;;;;;;2.33;1.05;;;21.30;77.20;;;;;;6285148;28;20271;-68
2022/06/15 11:34:05;;;;;;;0.90;0.90;;;21.30;77.50;;;;;;6285009;28;20311;-68
2022/06/15 11:37:18;;;;;;;1.00;1.00;;;21.40;76.60;;;;;;6284678;28;20453;-68
2022/06/15 11:40:31;;;;;;;1.00;1.00;;;21.40;78.20;;;;;;6285312;28;20374;-68
2022/06/15 11:43:41;;;;;;;1.10;1.10;;;21.40;77.50;;;;;;6284477;28;20582;-68
2022/06/15 11:47:02;;;;;;;1.05;1.05;;;21.50;77.40;;;;;;6285663;28;20275;-69
2022/06/15 11:50:17;;;;;;;0.80;0.80;;;21.50;75.40;;;;;;6284780;28;20610;-68
2022/06/15 11:53:35;;;;;;;0.90;0.90;;;21.50;74.00;;;;;;6287932;28;20303;-68
2022/06/15 11:56:57;;;;;;;1.00;1.00;;;21.60;76.10;;;;;;6272502;28;20271;-68
2022/06/15 12:00:16;;;;;;;1.00;1.00;;;21.70;76.20;;;;;;6290041;28;20295;-69
2022/06/15 12:03:54;;;;;;;2.22;1.25;;;21.80;77.00;;;;;;6289861;28;20294;-69
2022/06/15 12:07:08;;;;;;;1.60;1.10;;;21.80;75.40;;;;;;6236772;28;20555;-69
2022/06/15 12:10:27;;;;;;;1.25;0.90;;;21.80;75.10;;;;;;6289366;28;20279;-69
2022/06/15 12:13:53;;;;;;;3.20;1.10;;;21.90;75.50;;;;;;6289355;28;20383;-69
2022/06/15 12:17:05;;;;;;;1.08;1.08;;;21.90;75.80;;;;;;6290159;28;20570;-69
2022/06/15 12:20:19;;;;;;;1.10;1.10;;;22.00;77.60;;;;;;6289307;28;20271;-68
2022/06/15 12:23:43;;;;;;;1.20;1.20;;;22.00;74.80;;;;;;6289005;28;20387;-69
2022/06/15 12:27:01;;;;;;;1.92;1.75;;;21.90;73.80;;;;;;6289423;28;20468;-68
2022/06/15 12:30:20;;;;;;;8.75;1.35;;;22.00;75.80;;;;;;6289502;28;20295;-68
2022/06/15 12:33:32;;;;;;;1.60;1.60;;;22.10;75.70;;;;;;6289214;28;20298;-67
2022/06/15 12:36:43;;;;;;;1.50;1.50;;;22.20;75.50;;;;;;6289233;28;20268;-67
2022/06/15 12:39:57;;;;;;;1.00;1.00;;;22.30;75.70;;;;;;6289142;28;20296;-68
2022/06/15 12:43:32;;;;;;;1.25;1.25;;;22.20;73.20;;;;;;6288834;28;20310;-69
2022/06/15 12:46:38;;;;;;;1.55;1.10;;;22.20;73.10;;;;;;6289321;28;20271;-68
2022/06/15 12:49:52;;;;;;;2.63;1.20;;;22.30;73.50;;;;;;6289208;28;20291;-68
2022/06/15 12:53:01;;;;;;;0.90;0.90;;;22.50;74.90;;;;;;6288359;28;20479;-69
2022/06/15 12:56:24;;;;;;;1.30;1.30;;;22.60;73.90;;;;;;6288787;28;20442;-68
2022/06/15 12:59:44;;;;;;;1.60;1.08;;;22.50;72.30;;;;;;6288442;28;20294;-69
2022/06/15 13:02:58;;;;;;;1.20;1.20;;;22.60;72.30;;;;;;6287824;28;20299;-68
2022/06/15 13:06:26;;;;;;;1.10;1.10;;;22.50;69.30;;;;;;6288207;28;20267;-68
2022/06/15 13:09:31;;;;;;;3.58;1.00;;;22.40;70.00;;;;;;6288475;28;20582;-69
2022/06/15 13:12:41;;;;;;;1.10;1.10;;;22.60;70.20;;;;;;6288486;28;20470;-68
2022/06/15 13:15:59;;;;;;;1.10;1.10;;;22.70;70.60;;;;;;6288668;28;20267;-68
2022/06/15 13:19:07;;;;;;;3.22;1.33;;;22.80;69.60;;;;;;6287800;28;20447;-68
2022/06/15 13:22:16;;;;;;;1.10;1.10;;;22.90;68.20;;;;;;6281101;28;20272;-68
2022/06/15 13:25:22;;;;;;;1.23;1.10;;;22.90;68.20;;;;;;6288432;28;20303;-68
2022/06/15 13:28:32;;;;;;;1.65;1.10;;;23.00;68.20;;;;;;6287660;28;20296;-68
2022/06/15 13:31:43;;;;;;;2.97;1.40;;;22.80;66.60;;;;;;6288226;28;20574;-68
2022/06/15 13:34:49;;;;;;;1.02;1.02;;;23.10;69.30;;;;;;6287485;28;20299;-68
2022/06/15 13:38:05;;;;;;;1.05;1.05;;;23.10;66.30;;;;;;6287682;28;20295;-68
2022/06/15 13:41:26;;;;;;;0.90;0.90;;;23.10;64.20;;;;;;6288057;28;20276;-68
2022/06/15 13:44:49;;;;;;;1.10;1.10;;;23.10;64.80;;;;;;6287384;28;20310;-68
2022/06/15 13:47:59;;;;;;;1.02;1.02;;;23.60;63.10;;;;;;6287366;28;20308;-68
2022/06/15 13:51:10;;;;;;;2.33;2.33;;;24.40;63.20;;;;;;6287914;28;20361;-67
2022/06/15 13:54:34;;;;;;;1.90;1.77;;;25.60;60.70;;;;;;6287269;28;20299;-67
2022/06/15 13:58:14;;;;;;;1.40;1.40;;;26.10;58.50;;;;;;6287070;28;20299;-68
2022/06/15 14:01:33;;;;;;;1.10;1.10;;;25.20;59.20;;;;;;6287421;28;20271;-68
2022/06/15 14:05:07;;;;;;;1.98;1.60;;;25.90;57.20;;;;;;6286853;28;20295;-67
2022/06/15 14:08:43;;;;;;;2.95;1.20;;;26.40;55.50;;;;;;6286779;28;20299;-68
2022/06/15 14:12:23;;;;;;;2.83;1.10;;;26.60;53.50;;;;;;6287281;28;20268;-68
2022/06/15 14:16:04;;;;;;;2.92;1.20;;;26.80;52.70;;;;;;6285963;28;20279;-68
2022/06/15 14:19:21;;;;;;;2.35;1.17;;;26.10;55.30;;;;;;6281964;28;20614;-68
2022/06/15 14:22:27;;;;;;;1.42;1.30;;;25.60;55.30;;;;;;6286286;28;20275;-68
2022/06/15 14:25:38;;;;;;;1.35;1.35;;;25.40;55.50;;;;;;6286887;28;20460;-68
2022/06/15 14:28:59;;;;;;;1.83;1.15;;;25.20;57.20;;;;;;6286366;28;20300;-69
2022/06/15 14:32:25;;;;;;;1.50;1.50;;;25.30;58.10;;;;;;6286374;28;20267;-69
2022/06/15 14:35:33;;;;;;;1.05;1.00;;;25.20;56.30;;;;;;6286414;28;20479;-69
2022/06/15 14:38:39;;;;;;;1.42;1.33;;;25.30;58.70;;;;;;6286127;28;20300;-69
2022/06/15 14:41:44;;;;;;;1.23;1.20;;;25.30;57.60;;;;;;6286044;28;20275;-69
2022/06/15 14:44:51;;;;;;;1.10;1.10;;;25.70;56.90;;;;;;6285735;28;20486;-68
2022/06/15 14:48:01;;;;;;;1.42;1.17;;;26.20;55.30;;;;;;6285577;28;20299;-68
2022/06/15 14:51:14;;;;;;;1.40;1.40;;;26.50;53.50;;;;;;6286332;28;20440;-68
2022/06/15 14:54:21;;;;;;;1.90;1.83;;;27.00;53.80;;;;;;6285593;28;20304;-68
2022/06/15 14:57:30;;;;;;;1.85;1.50;;;26.30;55.60;;;;;;6285537;28;20272;-68
2022/06/15 15:00:35;;;;;;;1.30;1.30;;;26.00;54.40;;;;;;6285772;28;20284;-67
2022/06/15 15:03:42;;;;;;;1.80;1.30;;;25.70;57.20;;;;;;6285388;28;20311;-66
2022/06/15 15:06:54;;;;;;;1.65;1.13;;;25.30;55.40;;;;;;6286157;28;20267;-68
2022/06/15 15:10:00;;;;;;;3.60;3.30;;;24.90;53.60;;;;;;6284836;28;20287;-69
2022/06/15 15:13:27;;;;;;;1.92;1.92;;;24.90;53.40;;;;;;6285239;28;20291;-69
2022/06/15 15:16:40;;;;;;;3.92;1.50;;;24.90;54.10;;;;;;6285954;28;20562;-69
2022/06/15 15:19:46;;;;;;;1.20;1.20;;;25.30;57.00;;;;;;6285136;28;20307;-69
2022/06/15 15:22:53;;;;;;;1.30;1.30;;;26.10;54.50;;;;;;6284766;28;20303;-69
2022/06/15 15:25:59;;;;;;;4.75;1.38;;;26.60;55.20;;;;;;6284905;28;20298;-69
2022/06/15 15:36:13;;;;;;;1.95;1.20;;;26.10;53.10;;;;;;6285554;28;20274;-69
2022/06/15 15:39:20;;;;;;;1.27;1.20;;;25.90;54.00;;;;;;6285146;28;20295;-69
2022/06/15 15:42:25;;;;;;;9.75;1.70;;;26.30;53.80;;;;;;6284798;28;20255;-69
2022/06/15 15:45:30;;;;;;;1.75;1.63;;;26.30;52.80;;;;;;6285384;28;20296;-69
2022/06/15 15:48:36;;;;;;;3.20;1.30;;;26.00;54.40;;;;;;6284668;28;20487;-69
2022/06/15 15:51:41;;;;;;;1.88;1.50;;;25.60;53.40;;;;;;6284522;28;20271;-69
2022/06/15 15:54:50;;;;;;;1.95;1.52;;;25.20;56.80;;;;;;6284908;28;20571;-69
2022/06/15 15:57:55;;;;;;;1.52;1.42;;;24.90;54.60;;;;;;6284294;28;20295;-69
2022/06/15 16:01:01;;;;;;;1.73;1.13;;;24.70;54.80;;;;;;6283530;28;20366;-68
2022/06/15 16:04:07;;;;;;;3.00;2.80;;;24.60;55.60;;;;;;6284768;28;20290;-69
2022/06/15 16:07:15;;;;;;;1.77;1.77;;;24.50;56.30;;;;;;6283976;28;20291;-69
2022/06/15 16:10:25;;;;;;;2.25;2.08;;;24.40;57.90;;;;;;6285006;28;20259;-69
2022/06/15 16:13:30;;;;;;;2.45;2.20;;;24.30;57.50;;;;;;6277133;28;20307;-69
2022/06/15 16:16:35;;;;;;;3.40;1.50;;;24.20;57.50;;;;;;6284765;28;20378;-68
2022/06/15 16:19:42;;;;;;;2.28;1.67;;;24.10;58.30;;;;;;6284146;28;20294;-68
2022/06/15 16:22:47;;;;;;;2.72;1.23;;;24.00;57.50;;;;;;6283856;28;20295;-68
2022/06/15 16:25:54;;;;;;;1.40;1.40;;;24.00;57.90;;;;;;6284951;28;20307;-69
2022/06/15 16:29:07;;;;;;;1.83;1.55;;;23.60;64.20;;;;;;6284021;28;20311;-68
2022/06/15 16:32:12;;;;;;;1.98;1.63;;;23.40;66.00;;;;;;6284229;28;20272;-68
2022/06/15 16:35:20;;;;;;;3.70;3.50;;;23.20;66.20;;;;;;6284270;28;20446;-68
2022/06/15 16:38:26;;;;;;;2.28;2.08;;;23.00;67.50;;;;;;6278043;28;20294;-67
2022/06/15 16:41:33;;;;;;;3.42;1.90;;;22.80;69.40;;;;;;6289670;28;20270;-67
2022/06/15 16:44:38;;;;;;;4.80;1.88;;;22.60;71.50;;;;;;6288524;28;20550;-67
2022/06/15 16:47:43;;;;;;;1.90;1.80;;;22.40;74.20;;;;;;6288593;28;20575;-68
2022/06/15 16:50:48;;;;;;;2.58;1.83;;;22.20;81.00;;;;;;6288880;28;20268;-68
2022/06/15 16:53:54;;;;;;;2.00;1.90;;;22.20;82.30;;;;;;6288801;28;20480;-68
2022/06/15 16:57:09;;;;;;;3.65;2.20;;;21.90;83.60;;;;;;6289304;28;20267;-68